sensor_id;sensor_type;location;lat;lon;timestamp;P1;durP1;ratioP1;P2;durP2;ratioP2
2476;SDS011;1249;51.270;6.756;2023-05-02T00:02:08;15.10;;;13.17;;
2476;SDS011;1249;51.270;6.756;2023-05-02T00:04:34;20.20;;;13.00;;
2476;SDS011;1249;51.270;6.756;2023-05-02T00:07:02;18.50;;;14.33;;
2476;SDS011;1249;51.270;6.756;2023-05-02T00:09:39;16.47;;;14.40;;
2476;SDS011;1249;51.270;6.756;2023-05-02T00:12:06;17.33;;;14.73;;
2476;SDS011;1249;51.270;6.756;2023-05-02T00:14:32;21.93;;;17.23;;
2476;SDS011;1249;51.270;6.756;2023-05-02T00:16:58;21.60;;;17.50;;
2476;SDS011;1249;51.270;6.756;2023-05-02T00:19:35;26.53;;;18.97;;
2476;SDS011;1249;51.270;6.756;2023-05-02T00:22:08;24.53;;;18.40;;
2476;SDS011;1249;51.270;6.756;2023-05-02T00:24:35;26.30;;;17.60;;
2476;SDS011;1249;51.270;6.756;2023-05-02T00:27:03;25.93;;;19.90;;
2476;SDS011;1249;51.270;6.756;2023-05-02T00:29:30;26.20;;;19.70;;
2476;SDS011;1249;51.270;6.756;2023-05-02T00:32:00;26.07;;;20.30;;
2476;SDS011;1249;51.270;6.756;2023-05-02T00:34:29;27.23;;;20.60;;
2476;SDS011;1249;51.270;6.756;2023-05-02T00:36:55;23.80;;;19.30;;
2476;SDS011;1249;51.270;6.756;2023-05-02T00:39:25;28.33;;;21.33;;
2476;SDS011;1249;51.270;6.756;2023-05-02T00:41:56;29.10;;;21.20;;
2476;SDS011;1249;51.270;6.756;2023-05-02T00:44:23;29.10;;;21.20;;
2476;SDS011;1249;51.270;6.756;2023-05-02T00:46:49;30.00;;;22.10;;
2476;SDS011;1249;51.270;6.756;2023-05-02T00:49:18;28.03;;;21.33;;
2476;SDS011;1249;51.270;6.756;2023-05-02T00:51:44;28.33;;;21.30;;
2476;SDS011;1249;51.270;6.756;2023-05-02T00:54:11;32.37;;;22.90;;
2476;SDS011;1249;51.270;6.756;2023-05-02T00:56:37;32.87;;;23.10;;
2476;SDS011;1249;51.270;6.756;2023-05-02T00:59:07;30.03;;;21.57;;
2476;SDS011;1249;51.270;6.756;2023-05-02T01:01:42;30.30;;;22.63;;
2476;SDS011;1249;51.270;6.756;2023-05-02T01:13:03;30.10;;;21.77;;
2476;SDS011;1249;51.270;6.756;2023-05-02T01:15:34;33.53;;;23.57;;
2476;SDS011;1249;51.270;6.756;2023-05-02T01:18:03;30.97;;;22.60;;
2476;SDS011;1249;51.270;6.756;2023-05-02T01:20:30;30.50;;;22.40;;
2476;SDS011;1249;51.270;6.756;2023-05-02T01:23:02;37.87;;;24.27;;
2476;SDS011;1249;51.270;6.756;2023-05-02T01:25:48;29.80;;;22.50;;
2476;SDS011;1249;51.270;6.756;2023-05-02T01:31:03;36.90;;;23.03;;
2476;SDS011;1249;51.270;6.756;2023-05-02T01:33:31;32.83;;;23.77;;
2476;SDS011;1249;51.270;6.756;2023-05-02T01:36:00;33.47;;;22.43;;
2476;SDS011;1249;51.270;6.756;2023-05-02T01:38:27;36.17;;;24.60;;
2476;SDS011;1249;51.270;6.756;2023-05-02T01:40:54;34.20;;;23.40;;
2476;SDS011;1249;51.270;6.756;2023-05-02T01:43:27;32.93;;;24.00;;
2476;SDS011;1249;51.270;6.756;2023-05-02T01:45:54;37.00;;;24.60;;
2476;SDS011;1249;51.270;6.756;2023-05-02T01:48:22;34.67;;;23.37;;
2476;SDS011;1249;51.270;6.756;2023-05-02T01:50:52;36.50;;;23.27;;
2476;SDS011;1249;51.270;6.756;2023-05-02T01:53:21;35.20;;;22.67;;
2476;SDS011;1249;51.270;6.756;2023-05-02T01:55:49;31.07;;;21.10;;
2476;SDS011;1249;51.270;6.756;2023-05-02T01:58:16;32.57;;;22.90;;
2476;SDS011;1249;51.270;6.756;2023-05-02T02:00:44;31.37;;;20.90;;
2476;SDS011;1249;51.270;6.756;2023-05-02T02:03:11;28.50;;;21.87;;
2476;SDS011;1249;51.270;6.756;2023-05-02T02:05:38;31.13;;;21.13;;
2476;SDS011;1249;51.270;6.756;2023-05-02T02:08:05;30.07;;;19.23;;
2476;SDS011;1249;51.270;6.756;2023-05-02T02:10:34;28.70;;;21.40;;
2476;SDS011;1249;51.270;6.756;2023-05-02T02:13:05;29.67;;;20.37;;
2476;SDS011;1249;51.270;6.756;2023-05-02T02:15:41;32.47;;;21.57;;
2476;SDS011;1249;51.270;6.756;2023-05-02T02:18:12;30.67;;;19.97;;
2476;SDS011;1249;51.270;6.756;2023-05-02T02:20:43;34.03;;;22.60;;
2476;SDS011;1249;51.270;6.756;2023-05-02T02:23:10;33.50;;;21.50;;
2476;SDS011;1249;51.270;6.756;2023-05-02T02:25:39;32.70;;;21.93;;
2476;SDS011;1249;51.270;6.756;2023-05-02T02:28:05;28.10;;;18.60;;
2476;SDS011;1249;51.270;6.756;2023-05-02T02:30:32;31.17;;;20.20;;
2476;SDS011;1249;51.270;6.756;2023-05-02T02:32:58;32.80;;;20.97;;
2476;SDS011;1249;51.270;6.756;2023-05-02T02:35:25;33.43;;;21.20;;
2476;SDS011;1249;51.270;6.756;2023-05-02T02:37:58;31.17;;;21.33;;
2476;SDS011;1249;51.270;6.756;2023-05-02T02:40:36;30.60;;;18.93;;
2476;SDS011;1249;51.270;6.756;2023-05-02T02:43:11;33.97;;;20.80;;
2476;SDS011;1249;51.270;6.756;2023-05-02T02:48:31;30.07;;;20.13;;
2476;SDS011;1249;51.270;6.756;2023-05-02T02:51:11;28.80;;;19.60;;
2476;SDS011;1249;51.270;6.756;2023-05-02T02:56:29;29.60;;;19.83;;
2476;SDS011;1249;51.270;6.756;2023-05-02T02:59:05;27.97;;;19.70;;
2476;SDS011;1249;51.270;6.756;2023-05-02T03:01:34;29.03;;;21.40;;
2476;SDS011;1249;51.270;6.756;2023-05-02T03:04:03;28.30;;;18.70;;
2476;SDS011;1249;51.270;6.756;2023-05-02T03:06:31;28.83;;;19.97;;
2476;SDS011;1249;51.270;6.756;2023-05-02T03:08:57;26.90;;;16.93;;
2476;SDS011;1249;51.270;6.756;2023-05-02T03:11:22;27.70;;;17.83;;
2476;SDS011;1249;51.270;6.756;2023-05-02T03:13:48;27.20;;;17.87;;
2476;SDS011;1249;51.270;6.756;2023-05-02T03:16:33;29.03;;;17.73;;
2476;SDS011;1249;51.270;6.756;2023-05-02T03:19:00;26.43;;;17.77;;
2476;SDS011;1249;51.270;6.756;2023-05-02T03:21:27;21.67;;;16.37;;
2476;SDS011;1249;51.270;6.756;2023-05-02T03:23:55;25.83;;;15.73;;
2476;SDS011;1249;51.270;6.756;2023-05-02T03:26:24;22.30;;;14.60;;
2476;SDS011;1249;51.270;6.756;2023-05-02T03:28:50;22.40;;;15.20;;
2476;SDS011;1249;51.270;6.756;2023-05-02T03:31:16;21.10;;;15.23;;
2476;SDS011;1249;51.270;6.756;2023-05-02T03:33:41;20.10;;;13.10;;
2476;SDS011;1249;51.270;6.756;2023-05-02T03:36:07;19.07;;;13.77;;
2476;SDS011;1249;51.270;6.756;2023-05-02T03:38:33;22.97;;;14.07;;
2476;SDS011;1249;51.270;6.756;2023-05-02T03:40:58;20.23;;;14.53;;
2476;SDS011;1249;51.270;6.756;2023-05-02T03:43:24;18.73;;;13.87;;
2476;SDS011;1249;51.270;6.756;2023-05-02T03:45:49;20.40;;;12.53;;
2476;SDS011;1249;51.270;6.756;2023-05-02T03:48:15;17.93;;;12.80;;
2476;SDS011;1249;51.270;6.756;2023-05-02T03:50:41;18.20;;;11.57;;
2476;SDS011;1249;51.270;6.756;2023-05-02T03:53:07;14.90;;;11.70;;
2476;SDS011;1249;51.270;6.756;2023-05-02T03:55:38;13.00;;;10.67;;
2476;SDS011;1249;51.270;6.756;2023-05-02T03:58:07;17.50;;;11.30;;
2476;SDS011;1249;51.270;6.756;2023-05-02T04:00:34;17.33;;;11.77;;
2476;SDS011;1249;51.270;6.756;2023-05-02T04:03:00;16.57;;;11.70;;
2476;SDS011;1249;51.270;6.756;2023-05-02T04:05:26;17.53;;;10.77;;
2476;SDS011;1249;51.270;6.756;2023-05-02T04:07:51;14.40;;;10.33;;
2476;SDS011;1249;51.270;6.756;2023-05-02T04:10:17;17.27;;;11.80;;
2476;SDS011;1249;51.270;6.756;2023-05-02T04:12:43;19.40;;;13.53;;
2476;SDS011;1249;51.270;6.756;2023-05-02T04:15:11;18.80;;;11.43;;
2476;SDS011;1249;51.270;6.756;2023-05-02T04:17:37;19.17;;;12.67;;
2476;SDS011;1249;51.270;6.756;2023-05-02T04:20:03;16.77;;;12.67;;
2476;SDS011;1249;51.270;6.756;2023-05-02T04:22:29;18.60;;;14.00;;
2476;SDS011;1249;51.270;6.756;2023-05-02T04:24:55;21.03;;;14.13;;
2476;SDS011;1249;51.270;6.756;2023-05-02T04:27:21;19.80;;;13.83;;
2476;SDS011;1249;51.270;6.756;2023-05-02T04:29:47;23.30;;;13.30;;
2476;SDS011;1249;51.270;6.756;2023-05-02T04:32:13;18.40;;;12.70;;
2476;SDS011;1249;51.270;6.756;2023-05-02T04:34:39;21.07;;;14.10;;
2476;SDS011;1249;51.270;6.756;2023-05-02T04:37:05;17.30;;;12.97;;
2476;SDS011;1249;51.270;6.756;2023-05-02T04:39:31;17.90;;;12.00;;
2476;SDS011;1249;51.270;6.756;2023-05-02T04:41:57;20.57;;;14.57;;
2476;SDS011;1249;51.270;6.756;2023-05-02T04:44:23;22.00;;;13.90;;
2476;SDS011;1249;51.270;6.756;2023-05-02T04:46:48;19.43;;;13.40;;
2476;SDS011;1249;51.270;6.756;2023-05-02T04:49:14;24.07;;;13.57;;
2476;SDS011;1249;51.270;6.756;2023-05-02T04:51:40;17.40;;;13.57;;
2476;SDS011;1249;51.270;6.756;2023-05-02T04:54:05;19.87;;;13.17;;
2476;SDS011;1249;51.270;6.756;2023-05-02T04:56:31;22.37;;;13.80;;
2476;SDS011;1249;51.270;6.756;2023-05-02T04:58:57;18.40;;;11.23;;
2476;SDS011;1249;51.270;6.756;2023-05-02T05:01:23;23.30;;;13.33;;
2476;SDS011;1249;51.270;6.756;2023-05-02T05:03:51;19.13;;;13.27;;
2476;SDS011;1249;51.270;6.756;2023-05-02T05:06:17;22.33;;;13.13;;
2476;SDS011;1249;51.270;6.756;2023-05-02T05:08:43;18.57;;;11.90;;
2476;SDS011;1249;51.270;6.756;2023-05-02T05:11:09;17.23;;;11.63;;
2476;SDS011;1249;51.270;6.756;2023-05-02T05:13:35;20.40;;;13.53;;
2476;SDS011;1249;51.270;6.756;2023-05-02T05:16:01;18.57;;;13.07;;
2476;SDS011;1249;51.270;6.756;2023-05-02T05:18:27;22.17;;;13.50;;
2476;SDS011;1249;51.270;6.756;2023-05-02T05:20:53;19.00;;;12.60;;
2476;SDS011;1249;51.270;6.756;2023-05-02T05:23:18;19.23;;;12.33;;
2476;SDS011;1249;51.270;6.756;2023-05-02T05:25:44;21.40;;;14.20;;
2476;SDS011;1249;51.270;6.756;2023-05-02T05:28:10;18.90;;;13.67;;
2476;SDS011;1249;51.270;6.756;2023-05-02T05:30:36;22.53;;;13.97;;
2476;SDS011;1249;51.270;6.756;2023-05-02T05:33:02;18.60;;;13.67;;
2476;SDS011;1249;51.270;6.756;2023-05-02T05:35:27;21.00;;;13.77;;
2476;SDS011;1249;51.270;6.756;2023-05-02T05:37:53;18.30;;;12.47;;
2476;SDS011;1249;51.270;6.756;2023-05-02T05:40:18;16.80;;;11.70;;
2476;SDS011;1249;51.270;6.756;2023-05-02T05:42:45;17.50;;;12.63;;
2476;SDS011;1249;51.270;6.756;2023-05-02T05:45:11;17.43;;;10.53;;
2476;SDS011;1249;51.270;6.756;2023-05-02T05:47:36;11.00;;;7.73;;
2476;SDS011;1249;51.270;6.756;2023-05-02T05:50:02;9.03;;;6.67;;
2476;SDS011;1249;51.270;6.756;2023-05-02T05:52:28;5.93;;;4.77;;
2476;SDS011;1249;51.270;6.756;2023-05-02T05:54:54;5.33;;;4.83;;
2476;SDS011;1249;51.270;6.756;2023-05-02T05:57:20;7.20;;;5.13;;
2476;SDS011;1249;51.270;6.756;2023-05-02T05:59:46;7.07;;;5.50;;
2476;SDS011;1249;51.270;6.756;2023-05-02T06:02:12;5.43;;;4.50;;
2476;SDS011;1249;51.270;6.756;2023-05-02T06:04:39;5.37;;;4.87;;
2476;SDS011;1249;51.270;6.756;2023-05-02T06:07:05;5.73;;;4.67;;
2476;SDS011;1249;51.270;6.756;2023-05-02T06:09:30;4.93;;;4.53;;
2476;SDS011;1249;51.270;6.756;2023-05-02T06:11:56;5.07;;;4.67;;
2476;SDS011;1249;51.270;6.756;2023-05-02T06:14:21;9.40;;;3.57;;
2476;SDS011;1249;51.270;6.756;2023-05-02T06:16:47;5.57;;;4.43;;
2476;SDS011;1249;51.270;6.756;2023-05-02T06:19:12;10.00;;;4.67;;
2476;SDS011;1249;51.270;6.756;2023-05-02T06:21:39;6.20;;;4.67;;
2476;SDS011;1249;51.270;6.756;2023-05-02T06:24:05;8.20;;;4.23;;
2476;SDS011;1249;51.270;6.756;2023-05-02T06:26:30;5.70;;;4.67;;
2476;SDS011;1249;51.270;6.756;2023-05-02T06:28:56;7.00;;;5.07;;
2476;SDS011;1249;51.270;6.756;2023-05-02T06:31:21;5.60;;;5.10;;
2476;SDS011;1249;51.270;6.756;2023-05-02T06:33:47;4.37;;;4.07;;
2476;SDS011;1249;51.270;6.756;2023-05-02T06:36:12;6.67;;;4.27;;
2476;SDS011;1249;51.270;6.756;2023-05-02T06:38:38;4.10;;;3.70;;
2476;SDS011;1249;51.270;6.756;2023-05-02T06:41:03;6.40;;;4.43;;
2476;SDS011;1249;51.270;6.756;2023-05-02T06:43:29;8.10;;;4.43;;
2476;SDS011;1249;51.270;6.756;2023-05-02T06:45:55;13.03;;;4.53;;
2476;SDS011;1249;51.270;6.756;2023-05-02T06:48:21;4.40;;;3.87;;
2476;SDS011;1249;51.270;6.756;2023-05-02T06:50:47;10.60;;;4.83;;
2476;SDS011;1249;51.270;6.756;2023-05-02T06:53:13;10.20;;;5.10;;
2476;SDS011;1249;51.270;6.756;2023-05-02T06:55:39;5.03;;;4.50;;
2476;SDS011;1249;51.270;6.756;2023-05-02T06:58:04;7.47;;;6.23;;
2476;SDS011;1249;51.270;6.756;2023-05-02T07:00:30;6.70;;;5.17;;
2476;SDS011;1249;51.270;6.756;2023-05-02T07:02:56;6.80;;;4.37;;
2476;SDS011;1249;51.270;6.756;2023-05-02T07:05:21;6.33;;;4.87;;
2476;SDS011;1249;51.270;6.756;2023-05-02T07:07:47;10.20;;;6.20;;
2476;SDS011;1249;51.270;6.756;2023-05-02T07:10:13;6.23;;;5.63;;
2476;SDS011;1249;51.270;6.756;2023-05-02T07:12:38;8.83;;;6.07;;
2476;SDS011;1249;51.270;6.756;2023-05-02T07:15:04;7.77;;;5.23;;
2476;SDS011;1249;51.270;6.756;2023-05-02T07:17:30;8.17;;;4.83;;
2476;SDS011;1249;51.270;6.756;2023-05-02T07:19:56;6.80;;;4.97;;
2476;SDS011;1249;51.270;6.756;2023-05-02T07:22:22;7.10;;;5.10;;
2476;SDS011;1249;51.270;6.756;2023-05-02T07:24:47;7.77;;;5.30;;
2476;SDS011;1249;51.270;6.756;2023-05-02T07:27:23;7.47;;;5.30;;
2476;SDS011;1249;51.270;6.756;2023-05-02T07:29:49;5.97;;;5.00;;
2476;SDS011;1249;51.270;6.756;2023-05-02T07:45:28;7.70;;;3.07;;
2476;SDS011;1249;51.270;6.756;2023-05-02T07:47:59;4.70;;;2.67;;
2476;SDS011;1249;51.270;6.756;2023-05-02T07:50:25;3.23;;;2.33;;
2476;SDS011;1249;51.270;6.756;2023-05-02T07:52:51;5.70;;;3.00;;
2476;SDS011;1249;51.270;6.756;2023-05-02T07:55:18;3.20;;;2.23;;
2476;SDS011;1249;51.270;6.756;2023-05-02T07:57:47;5.30;;;2.47;;
2476;SDS011;1249;51.270;6.756;2023-05-02T08:00:13;3.87;;;2.17;;
2476;SDS011;1249;51.270;6.756;2023-05-02T08:02:40;6.20;;;2.80;;
2476;SDS011;1249;51.270;6.756;2023-05-02T08:05:06;4.10;;;2.80;;
2476;SDS011;1249;51.270;6.756;2023-05-02T08:07:32;3.20;;;2.80;;
2476;SDS011;1249;51.270;6.756;2023-05-02T08:09:59;4.23;;;2.37;;
2476;SDS011;1249;51.270;6.756;2023-05-02T08:15:03;7.10;;;2.40;;
2476;SDS011;1249;51.270;6.756;2023-05-02T08:17:30;4.17;;;2.40;;
2476;SDS011;1249;51.270;6.756;2023-05-02T08:19:55;6.90;;;2.53;;
2476;SDS011;1249;51.270;6.756;2023-05-02T08:22:21;4.13;;;2.70;;
2476;SDS011;1249;51.270;6.756;2023-05-02T08:24:47;3.63;;;2.70;;
2476;SDS011;1249;51.270;6.756;2023-05-02T08:27:12;5.20;;;2.60;;
2476;SDS011;1249;51.270;6.756;2023-05-02T08:29:38;5.13;;;2.80;;
2476;SDS011;1249;51.270;6.756;2023-05-02T08:32:03;5.43;;;2.73;;
2476;SDS011;1249;51.270;6.756;2023-05-02T08:34:29;8.83;;;3.23;;
2476;SDS011;1249;51.270;6.756;2023-05-02T08:36:55;8.23;;;3.57;;
2476;SDS011;1249;51.270;6.756;2023-05-02T08:39:20;4.53;;;3.40;;
2476;SDS011;1249;51.270;6.756;2023-05-02T08:41:46;6.63;;;3.73;;
2476;SDS011;1249;51.270;6.756;2023-05-02T08:44:11;5.00;;;2.63;;
2476;SDS011;1249;51.270;6.756;2023-05-02T08:46:39;5.77;;;4.17;;
2476;SDS011;1249;51.270;6.756;2023-05-02T08:49:06;7.53;;;4.67;;
2476;SDS011;1249;51.270;6.756;2023-05-02T08:51:34;6.70;;;3.10;;
2476;SDS011;1249;51.270;6.756;2023-05-02T08:54:01;9.20;;;4.10;;
2476;SDS011;1249;51.270;6.756;2023-05-02T08:56:28;5.97;;;4.83;;
2476;SDS011;1249;51.270;6.756;2023-05-02T08:58:53;10.73;;;3.90;;
2476;SDS011;1249;51.270;6.756;2023-05-02T09:01:21;7.83;;;5.47;;
2476;SDS011;1249;51.270;6.756;2023-05-02T09:03:48;8.77;;;4.37;;
2476;SDS011;1249;51.270;6.756;2023-05-02T09:08:41;3.43;;;3.13;;
2476;SDS011;1249;51.270;6.756;2023-05-02T09:11:08;4.90;;;3.57;;
2476;SDS011;1249;51.270;6.756;2023-05-02T09:13:36;4.93;;;4.37;;
2476;SDS011;1249;51.270;6.756;2023-05-02T09:16:09;8.23;;;5.57;;
2476;SDS011;1249;51.270;6.756;2023-05-02T09:18:42;4.13;;;3.70;;
2476;SDS011;1249;51.270;6.756;2023-05-02T09:21:13;3.33;;;3.10;;
2476;SDS011;1249;51.270;6.756;2023-05-02T09:23:44;8.00;;;3.20;;
2476;SDS011;1249;51.270;6.756;2023-05-02T09:31:18;4.27;;;3.37;;
2476;SDS011;1249;51.270;6.756;2023-05-02T09:33:45;5.43;;;4.77;;
2476;SDS011;1249;51.270;6.756;2023-05-02T09:36:12;8.73;;;4.50;;
2476;SDS011;1249;51.270;6.756;2023-05-02T09:38:40;5.00;;;3.60;;
2476;SDS011;1249;51.270;6.756;2023-05-02T09:41:07;8.10;;;4.20;;
2476;SDS011;1249;51.270;6.756;2023-05-02T09:43:33;6.67;;;4.27;;
2476;SDS011;1249;51.270;6.756;2023-05-02T09:45:59;8.03;;;5.30;;
2476;SDS011;1249;51.270;6.756;2023-05-02T09:48:29;5.50;;;4.40;;
2476;SDS011;1249;51.270;6.756;2023-05-02T09:50:55;7.93;;;3.80;;
2476;SDS011;1249;51.270;6.756;2023-05-02T09:53:23;5.20;;;4.33;;
2476;SDS011;1249;51.270;6.756;2023-05-02T09:55:58;6.13;;;4.07;;
2476;SDS011;1249;51.270;6.756;2023-05-02T09:58:25;5.43;;;4.77;;
2476;SDS011;1249;51.270;6.756;2023-05-02T10:00:50;5.10;;;4.63;;
2476;SDS011;1249;51.270;6.756;2023-05-02T10:03:16;4.60;;;3.87;;
2476;SDS011;1249;51.270;6.756;2023-05-02T10:05:44;5.60;;;3.80;;
2476;SDS011;1249;51.270;6.756;2023-05-02T10:08:10;11.87;;;5.10;;
2476;SDS011;1249;51.270;6.756;2023-05-02T10:10:38;5.80;;;4.43;;
2476;SDS011;1249;51.270;6.756;2023-05-02T10:13:06;6.27;;;3.10;;
2476;SDS011;1249;51.270;6.756;2023-05-02T10:15:33;3.90;;;2.97;;
2476;SDS011;1249;51.270;6.756;2023-05-02T10:18:03;6.33;;;3.77;;
2476;SDS011;1249;51.270;6.756;2023-05-02T10:20:34;5.17;;;2.43;;
2476;SDS011;1249;51.270;6.756;2023-05-02T10:23:01;8.53;;;3.50;;
2476;SDS011;1249;51.270;6.756;2023-05-02T10:25:28;5.03;;;3.17;;
2476;SDS011;1249;51.270;6.756;2023-05-02T10:27:56;4.57;;;2.93;;
2476;SDS011;1249;51.270;6.756;2023-05-02T10:30:23;2.97;;;2.60;;
2476;SDS011;1249;51.270;6.756;2023-05-02T10:32:50;4.47;;;3.30;;
2476;SDS011;1249;51.270;6.756;2023-05-02T10:38:01;4.10;;;3.17;;
2476;SDS011;1249;51.270;6.756;2023-05-02T10:40:27;6.87;;;2.93;;
2476;SDS011;1249;51.270;6.756;2023-05-02T10:42:54;12.03;;;5.00;;
2476;SDS011;1249;51.270;6.756;2023-05-02T10:45:31;11.20;;;4.47;;
2476;SDS011;1249;51.270;6.756;2023-05-02T10:48:14;5.83;;;3.60;;
2476;SDS011;1249;51.270;6.756;2023-05-02T10:53:24;10.67;;;4.27;;
2476;SDS011;1249;51.270;6.756;2023-05-02T10:58:39;5.53;;;2.57;;
2476;SDS011;1249;51.270;6.756;2023-05-02T11:01:31;5.80;;;3.20;;
2476;SDS011;1249;51.270;6.756;2023-05-02T11:06:25;9.47;;;5.87;;
2476;SDS011;1249;51.270;6.756;2023-05-02T11:08:51;8.07;;;4.60;;
2476;SDS011;1249;51.270;6.756;2023-05-02T11:14:03;9.20;;;3.43;;
2476;SDS011;1249;51.270;6.756;2023-05-02T11:19:23;5.00;;;3.70;;
2476;SDS011;1249;51.270;6.756;2023-05-02T11:21:52;8.57;;;3.87;;
2476;SDS011;1249;51.270;6.756;2023-05-02T11:24:41;4.27;;;2.97;;
2476;SDS011;1249;51.270;6.756;2023-05-02T11:30:01;7.37;;;4.10;;
2476;SDS011;1249;51.270;6.756;2023-05-02T11:35:15;7.50;;;4.33;;
2476;SDS011;1249;51.270;6.756;2023-05-02T11:38:01;6.57;;;4.10;;
2476;SDS011;1249;51.270;6.756;2023-05-02T11:40:34;6.17;;;3.97;;
2476;SDS011;1249;51.270;6.756;2023-05-02T11:43:07;9.07;;;4.10;;
2476;SDS011;1249;51.270;6.756;2023-05-02T11:45:40;4.00;;;3.40;;
2476;SDS011;1249;51.270;6.756;2023-05-02T11:48:09;3.50;;;3.20;;
2476;SDS011;1249;51.270;6.756;2023-05-02T11:50:53;4.47;;;2.90;;
2476;SDS011;1249;51.270;6.756;2023-05-02T11:53:26;6.93;;;3.27;;
2476;SDS011;1249;51.270;6.756;2023-05-02T11:55:57;7.00;;;3.90;;
2476;SDS011;1249;51.270;6.756;2023-05-02T11:58:28;6.73;;;4.37;;
2476;SDS011;1249;51.270;6.756;2023-05-02T12:00:57;6.03;;;3.13;;
2476;SDS011;1249;51.270;6.756;2023-05-02T12:03:26;4.90;;;3.10;;
2476;SDS011;1249;51.270;6.756;2023-05-02T12:05:53;9.07;;;3.00;;
2476;SDS011;1249;51.270;6.756;2023-05-02T12:08:20;8.30;;;3.40;;
2476;SDS011;1249;51.270;6.756;2023-05-02T12:10:45;4.30;;;3.23;;
2476;SDS011;1249;51.270;6.756;2023-05-02T12:13:11;6.67;;;3.50;;
2476;SDS011;1249;51.270;6.756;2023-05-02T12:15:37;8.60;;;3.83;;
2476;SDS011;1249;51.270;6.756;2023-05-02T12:18:02;6.93;;;3.80;;
2476;SDS011;1249;51.270;6.756;2023-05-02T12:20:28;4.03;;;3.63;;
2476;SDS011;1249;51.270;6.756;2023-05-02T12:22:54;4.43;;;3.07;;
2476;SDS011;1249;51.270;6.756;2023-05-02T12:25:21;6.27;;;4.07;;
2476;SDS011;1249;51.270;6.756;2023-05-02T12:27:59;4.10;;;3.20;;
2476;SDS011;1249;51.270;6.756;2023-05-02T12:30:29;4.10;;;3.47;;
2476;SDS011;1249;51.270;6.756;2023-05-02T12:32:57;4.63;;;4.10;;
2476;SDS011;1249;51.270;6.756;2023-05-02T12:35:23;7.00;;;4.20;;
2476;SDS011;1249;51.270;6.756;2023-05-02T12:37:51;5.10;;;4.20;;
2476;SDS011;1249;51.270;6.756;2023-05-02T12:40:18;6.27;;;3.73;;
2476;SDS011;1249;51.270;6.756;2023-05-02T12:42:57;6.33;;;4.43;;
2476;SDS011;1249;51.270;6.756;2023-05-02T12:45:31;7.00;;;4.37;;
2476;SDS011;1249;51.270;6.756;2023-05-02T12:48:01;7.90;;;5.23;;
2476;SDS011;1249;51.270;6.756;2023-05-02T12:50:43;5.83;;;4.57;;
2476;SDS011;1249;51.270;6.756;2023-05-02T12:53:09;7.47;;;4.10;;
2476;SDS011;1249;51.270;6.756;2023-05-02T12:55:35;5.17;;;3.83;;
2476;SDS011;1249;51.270;6.756;2023-05-02T12:58:04;7.77;;;3.90;;
2476;SDS011;1249;51.270;6.756;2023-05-02T13:03:53;4.60;;;4.20;;
2476;SDS011;1249;51.270;6.756;2023-05-02T13:06:19;4.20;;;3.60;;
2476;SDS011;1249;51.270;6.756;2023-05-02T13:08:44;4.73;;;4.10;;
2476;SDS011;1249;51.270;6.756;2023-05-02T13:11:10;4.37;;;3.97;;
2476;SDS011;1249;51.270;6.756;2023-05-02T13:13:36;9.13;;;4.20;;
2476;SDS011;1249;51.270;6.756;2023-05-02T13:16:02;4.73;;;3.67;;
2476;SDS011;1249;51.270;6.756;2023-05-02T13:18:28;6.53;;;3.77;;
2476;SDS011;1249;51.270;6.756;2023-05-02T13:20:53;3.90;;;3.30;;
2476;SDS011;1249;51.270;6.756;2023-05-02T13:23:19;4.10;;;3.63;;
2476;SDS011;1249;51.270;6.756;2023-05-02T13:25:44;4.10;;;3.00;;
2476;SDS011;1249;51.270;6.756;2023-05-02T13:28:10;4.63;;;3.20;;
2476;SDS011;1249;51.270;6.756;2023-05-02T13:30:35;5.53;;;3.63;;
2476;SDS011;1249;51.270;6.756;2023-05-02T13:33:01;8.63;;;4.83;;
2476;SDS011;1249;51.270;6.756;2023-05-02T13:35:26;4.77;;;3.57;;
2476;SDS011;1249;51.270;6.756;2023-05-02T13:37:52;9.50;;;4.23;;
2476;SDS011;1249;51.270;6.756;2023-05-02T13:40:18;4.83;;;3.93;;
2476;SDS011;1249;51.270;6.756;2023-05-02T13:42:43;5.30;;;3.80;;
2476;SDS011;1249;51.270;6.756;2023-05-02T13:45:09;5.00;;;3.27;;
2476;SDS011;1249;51.270;6.756;2023-05-02T13:47:35;7.27;;;4.80;;
2476;SDS011;1249;51.270;6.756;2023-05-02T13:50:01;3.97;;;3.63;;
2476;SDS011;1249;51.270;6.756;2023-05-02T13:52:27;7.80;;;3.63;;
2476;SDS011;1249;51.270;6.756;2023-05-02T13:54:52;4.00;;;3.70;;
2476;SDS011;1249;51.270;6.756;2023-05-02T13:57:18;3.63;;;3.33;;
2476;SDS011;1249;51.270;6.756;2023-05-02T13:59:44;4.37;;;3.43;;
2476;SDS011;1249;51.270;6.756;2023-05-02T14:02:09;5.67;;;3.50;;
2476;SDS011;1249;51.270;6.756;2023-05-02T14:04:35;3.63;;;3.33;;
2476;SDS011;1249;51.270;6.756;2023-05-02T14:07:01;5.63;;;3.53;;
2476;SDS011;1249;51.270;6.756;2023-05-02T14:09:26;6.60;;;4.07;;
2476;SDS011;1249;51.270;6.756;2023-05-02T14:11:52;8.93;;;4.10;;
2476;SDS011;1249;51.270;6.756;2023-05-02T14:14:17;9.50;;;3.70;;
2476;SDS011;1249;51.270;6.756;2023-05-02T14:16:43;7.07;;;3.30;;
2476;SDS011;1249;51.270;6.756;2023-05-02T14:19:08;4.70;;;3.23;;
2476;SDS011;1249;51.270;6.756;2023-05-02T14:21:34;5.00;;;3.90;;
2476;SDS011;1249;51.270;6.756;2023-05-02T14:24:02;4.23;;;3.33;;
2476;SDS011;1249;51.270;6.756;2023-05-02T14:26:28;4.20;;;3.87;;
2476;SDS011;1249;51.270;6.756;2023-05-02T14:28:54;5.47;;;3.40;;
2476;SDS011;1249;51.270;6.756;2023-05-02T14:31:20;6.33;;;3.70;;
2476;SDS011;1249;51.270;6.756;2023-05-02T14:33:46;3.60;;;3.30;;
2476;SDS011;1249;51.270;6.756;2023-05-02T14:36:11;5.67;;;3.63;;
2476;SDS011;1249;51.270;6.756;2023-05-02T14:38:37;5.43;;;4.50;;
2476;SDS011;1249;51.270;6.756;2023-05-02T14:41:02;5.77;;;3.43;;
2476;SDS011;1249;51.270;6.756;2023-05-02T14:43:28;4.03;;;3.20;;
2476;SDS011;1249;51.270;6.756;2023-05-02T14:45:54;4.30;;;3.80;;
2476;SDS011;1249;51.270;6.756;2023-05-02T14:48:20;6.00;;;4.17;;
2476;SDS011;1249;51.270;6.756;2023-05-02T14:50:46;3.47;;;3.27;;
2476;SDS011;1249;51.270;6.756;2023-05-02T14:53:11;5.97;;;3.93;;
2476;SDS011;1249;51.270;6.756;2023-05-02T14:55:37;7.73;;;4.30;;
2476;SDS011;1249;51.270;6.756;2023-05-02T14:58:06;5.10;;;3.87;;
2476;SDS011;1249;51.270;6.756;2023-05-02T15:00:34;5.70;;;4.00;;
2476;SDS011;1249;51.270;6.756;2023-05-02T15:03:03;6.20;;;3.70;;
2476;SDS011;1249;51.270;6.756;2023-05-02T15:05:34;6.07;;;4.30;;
2476;SDS011;1249;51.270;6.756;2023-05-02T15:08:00;7.60;;;4.27;;
2476;SDS011;1249;51.270;6.756;2023-05-02T15:10:26;6.37;;;4.37;;
2476;SDS011;1249;51.270;6.756;2023-05-02T15:12:52;4.17;;;3.77;;
2476;SDS011;1249;51.270;6.756;2023-05-02T15:15:18;5.40;;;4.87;;
2476;SDS011;1249;51.270;6.756;2023-05-02T15:17:48;4.00;;;3.60;;
2476;SDS011;1249;51.270;6.756;2023-05-02T15:20:17;7.10;;;4.17;;
2476;SDS011;1249;51.270;6.756;2023-05-02T15:22:42;7.20;;;4.30;;
2476;SDS011;1249;51.270;6.756;2023-05-02T15:25:08;7.13;;;4.70;;
2476;SDS011;1249;51.270;6.756;2023-05-02T15:27:34;7.00;;;4.60;;
2476;SDS011;1249;51.270;6.756;2023-05-02T15:30:00;6.20;;;4.87;;
2476;SDS011;1249;51.270;6.756;2023-05-02T15:32:26;4.90;;;4.40;;
2476;SDS011;1249;51.270;6.756;2023-05-02T15:34:52;6.50;;;4.53;;
2476;SDS011;1249;51.270;6.756;2023-05-02T15:37:18;6.50;;;3.80;;
2476;SDS011;1249;51.270;6.756;2023-05-02T15:39:44;5.20;;;4.70;;
2476;SDS011;1249;51.270;6.756;2023-05-02T15:42:09;3.63;;;3.33;;
2476;SDS011;1249;51.270;6.756;2023-05-02T15:44:35;4.73;;;4.00;;
2476;SDS011;1249;51.270;6.756;2023-05-02T15:47:01;5.07;;;3.53;;
2476;SDS011;1249;51.270;6.756;2023-05-02T15:49:27;10.57;;;4.17;;
2476;SDS011;1249;51.270;6.756;2023-05-02T15:51:57;6.03;;;4.13;;
2476;SDS011;1249;51.270;6.756;2023-05-02T15:54:26;4.80;;;3.17;;
2476;SDS011;1249;51.270;6.756;2023-05-02T15:56:51;9.63;;;5.33;;
2476;SDS011;1249;51.270;6.756;2023-05-02T15:59:17;5.00;;;3.97;;
2476;SDS011;1249;51.270;6.756;2023-05-02T16:01:43;3.93;;;3.53;;
2476;SDS011;1249;51.270;6.756;2023-05-02T16:04:09;5.93;;;3.90;;
2476;SDS011;1249;51.270;6.756;2023-05-02T16:06:35;6.47;;;3.83;;
2476;SDS011;1249;51.270;6.756;2023-05-02T16:09:03;5.13;;;3.70;;
2476;SDS011;1249;51.270;6.756;2023-05-02T16:11:30;7.57;;;4.17;;
2476;SDS011;1249;51.270;6.756;2023-05-02T16:13:56;7.23;;;4.10;;